createdAt,value
2023-01-18T00:00:10.217Z,17.13
2023-01-18T00:02:37.312Z,19.23
2023-01-18T00:05:03.995Z,25.35
2023-01-18T00:07:31.376Z,18.20
2023-01-18T00:09:57.718Z,21.58
2023-01-18T00:12:24.140Z,18.00
2023-01-18T00:14:50.462Z,21.23
2023-01-18T00:17:16.821Z,16.90
2023-01-18T00:19:43.141Z,16.92
2023-01-18T00:22:09.489Z,16.75
2023-01-18T00:24:35.822Z,15.65
2023-01-18T00:27:02.245Z,18.40
2023-01-18T00:29:30.761Z,18.40
2023-01-18T00:31:57.132Z,17.80
2023-01-18T00:34:23.611Z,17.70
2023-01-18T00:36:49.960Z,16.05
2023-01-18T00:39:16.510Z,15.90
2023-01-18T00:42:02.857Z,17.20
2023-01-18T00:44:29.333Z,19.10
2023-01-18T00:46:56.056Z,15.50
2023-01-18T00:49:23.600Z,21.42
2023-01-18T00:51:52.038Z,15.10
2023-01-18T00:54:18.968Z,15.10
2023-01-18T00:56:50.455Z,14.30
2023-01-18T00:59:16.783Z,14.15
2023-01-18T01:01:44.883Z,16.15
2023-01-18T01:04:30.011Z,18.67
2023-01-18T01:06:56.489Z,15.27
2023-01-18T01:09:29.125Z,15.27
2023-01-18T01:12:16.206Z,16.08
2023-01-18T01:15:04.375Z,16.40
2023-01-18T01:17:51.230Z,14.18
2023-01-18T01:20:36.381Z,13.73
2023-01-18T01:23:28.201Z,14.55
2023-01-18T01:26:10.845Z,14.68
2023-01-18T01:28:39.752Z,16.70
2023-01-18T01:31:08.819Z,17.45
2023-01-18T01:33:37.323Z,14.90
2023-01-18T01:36:13.332Z,16.35
2023-01-18T01:38:43.570Z,15.18
2023-01-18T01:41:31.195Z,14.65
2023-01-18T01:44:24.467Z,15.20
2023-01-18T01:46:53.908Z,19.67
2023-01-18T01:49:44.070Z,18.73
2023-01-18T01:52:13.537Z,14.90
2023-01-18T01:54:49.443Z,15.85
2023-01-18T01:57:23.106Z,15.32
2023-01-18T01:59:59.172Z,14.23
2023-01-18T02:02:25.575Z,15.40
2023-01-18T02:04:55.080Z,17.13
2023-01-18T02:07:22.551Z,14.60
2023-01-18T02:09:50.365Z,13.50
2023-01-18T02:12:17.022Z,14.10
2023-01-18T02:14:43.512Z,16.92
2023-01-18T02:17:32.587Z,16.17
2023-01-18T02:20:31.846Z,20.90
2023-01-18T02:23:03.928Z,17.52
2023-01-18T02:26:07.963Z,15.18
2023-01-18T02:28:37.496Z,19.52
2023-01-18T02:31:17.988Z,14.70
2023-01-18T02:34:35.999Z,14.02
2023-01-18T02:37:16.937Z,15.52
2023-01-18T02:39:58.545Z,17.63
2023-01-18T02:42:49.246Z,14.98
2023-01-18T02:45:39.655Z,14.80
2023-01-18T02:48:07.629Z,17.90
2023-01-18T02:50:34.281Z,15.25
2023-01-18T02:53:00.783Z,14.95
2023-01-18T02:55:50.446Z,14.65
2023-01-18T02:58:21.705Z,14.32
2023-01-18T03:00:55.053Z,14.55
2023-01-18T03:03:22.875Z,14.38
2023-01-18T03:05:51.834Z,20.27
2023-01-18T03:08:36.503Z,16.77
2023-01-18T03:11:07.647Z,14.75
2023-01-18T03:14:01.925Z,14.60
2023-01-18T03:16:40.361Z,17.15
2023-01-18T03:19:39.251Z,15.82
2023-01-18T03:22:06.312Z,18.13
2023-01-18T03:24:41.005Z,15.32
2023-01-18T03:27:27.142Z,14.82
2023-01-18T03:30:12.939Z,13.50
2023-01-18T03:32:59.079Z,16.67
2023-01-18T03:35:28.593Z,14.68
2023-01-18T03:37:58.379Z,17.80
2023-01-18T03:40:30.054Z,14.18
2023-01-18T03:43:14.985Z,14.90
2023-01-18T03:45:46.483Z,16.50
2023-01-18T03:48:13.554Z,14.60
2023-01-18T03:51:00.310Z,14.18
2023-01-18T03:53:34.847Z,16.23
2023-01-18T03:56:16.216Z,14.70
2023-01-18T03:58:45.112Z,13.80
2023-01-18T04:01:11.876Z,15.88
2023-01-18T04:03:38.317Z,16.70
2023-01-18T04:06:06.269Z,21.08
2023-01-18T04:08:32.618Z,15.07
2023-01-18T04:10:58.984Z,14.25
2023-01-18T04:13:25.312Z,19.65
2023-01-18T04:15:51.728Z,14.73
2023-01-18T04:18:18.244Z,17.42
2023-01-18T04:20:44.553Z,14.80
2023-01-18T04:23:10.994Z,15.65
2023-01-18T04:25:40.666Z,18.05
2023-01-18T04:28:07.008Z,17.42
2023-01-18T04:30:33.361Z,19.65
2023-01-18T04:33:00.121Z,18.13
2023-01-18T04:35:26.881Z,15.88
2023-01-18T04:37:53.263Z,17.38
2023-01-18T04:40:19.637Z,17.05
2023-01-18T04:42:52.155Z,19.80
2023-01-18T04:45:19.576Z,15.55
2023-01-18T04:47:46.395Z,17.35
2023-01-18T04:50:12.876Z,16.88
2023-01-18T04:52:39.200Z,16.88
2023-01-18T04:55:06.009Z,19.15
2023-01-18T04:57:32.393Z,17.00
2023-01-18T05:00:00.122Z,15.65
2023-01-18T05:02:26.707Z,17.23
2023-01-18T05:04:53.109Z,16.80
2023-01-18T05:07:19.483Z,13.82
2023-01-18T05:09:46.764Z,16.85
2023-01-18T05:12:13.077Z,16.38
2023-01-18T05:14:39.389Z,15.02
2023-01-18T05:17:07.200Z,15.65
2023-01-18T05:19:33.916Z,17.10
2023-01-18T05:22:00.287Z,14.63
2023-01-18T05:24:29.763Z,17.25
2023-01-18T05:26:56.366Z,15.02
2023-01-18T05:29:22.685Z,14.65
2023-01-18T05:31:49.135Z,16.73
2023-01-18T05:34:16.013Z,14.68
2023-01-18T05:36:42.715Z,16.08
2023-01-18T05:39:09.515Z,16.67
2023-01-18T05:41:35.848Z,15.30
2023-01-18T05:44:02.925Z,13.55
2023-01-18T05:46:29.274Z,15.50
2023-01-18T05:48:57.452Z,17.45
2023-01-18T05:51:24.266Z,15.52
2023-01-18T05:53:50.581Z,21.80
2023-01-18T05:56:17.475Z,15.15
2023-01-18T05:58:43.813Z,16.05
2023-01-18T06:01:10.286Z,14.93
2023-01-18T06:03:37.034Z,22.08
2023-01-18T06:06:03.536Z,20.90
2023-01-18T06:08:30.049Z,16.08
2023-01-18T06:10:59.125Z,20.33
2023-01-18T06:13:30.136Z,18.27
2023-01-18T06:15:58.154Z,22.48
2023-01-18T06:18:25.751Z,23.75
2023-01-18T06:20:59.115Z,23.05
2023-01-18T06:23:27.871Z,27.38
2023-01-18T06:25:54.259Z,20.73
2023-01-18T06:28:22.521Z,20.88
2023-01-18T06:30:53.038Z,20.83
2023-01-18T06:33:19.523Z,24.05
2023-01-18T06:35:45.958Z,21.45
2023-01-18T06:38:13.283Z,18.92
2023-01-18T06:40:39.833Z,21.60
2023-01-18T06:43:08.499Z,19.77
2023-01-18T06:45:35.437Z,20.88
2023-01-18T06:48:02.294Z,19.75
2023-01-18T06:50:28.890Z,18.58
2023-01-18T06:52:56.142Z,19.45
2023-01-18T06:55:23.061Z,18.90
2023-01-18T06:57:51.855Z,19.10
2023-01-18T07:00:18.732Z,19.48
2023-01-18T07:02:45.306Z,20.50
2023-01-18T07:05:11.642Z,20.60
2023-01-18T07:07:37.992Z,19.92
2023-01-18T07:10:04.694Z,19.73
2023-01-18T07:12:31.166Z,21.08
2023-01-18T07:14:57.833Z,20.65
2023-01-18T07:17:24.389Z,23.63
2023-01-18T07:19:50.947Z,18.17
2023-01-18T07:22:17.296Z,22.15
2023-01-18T07:24:43.739Z,19.67
2023-01-18T07:27:10.397Z,21.83
2023-01-18T07:29:36.768Z,19.63
2023-01-18T07:32:03.308Z,19.58
2023-01-18T07:34:29.769Z,24.95
2023-01-18T07:36:56.255Z,19.02
2023-01-18T07:39:22.606Z,19.42
2023-01-18T07:41:49.059Z,21.48
2023-01-18T07:44:15.720Z,20.35
2023-01-18T07:46:43.254Z,23.90
2023-01-18T07:49:09.819Z,22.48
2023-01-18T07:51:36.473Z,18.50
2023-01-18T07:54:02.957Z,22.92
2023-01-18T07:56:29.295Z,18.92
2023-01-18T07:58:55.817Z,18.10
2023-01-18T08:01:23.027Z,19.83
2023-01-18T08:03:50.654Z,18.85
2023-01-18T08:06:24.872Z,18.85
2023-01-18T08:08:51.869Z,18.77
2023-01-18T08:11:19.471Z,22.63
2023-01-18T08:13:46.883Z,21.05
2023-01-18T08:16:13.291Z,25.50
2023-01-18T08:18:40.315Z,18.08
2023-01-18T08:21:10.919Z,19.42
2023-01-18T08:23:37.889Z,18.67
2023-01-18T08:26:04.771Z,19.08
2023-01-18T08:28:31.374Z,20.10
2023-01-18T08:31:26.896Z,18.25
2023-01-18T08:33:53.949Z,18.27
2023-01-18T08:36:22.571Z,19.85
2023-01-18T08:38:55.329Z,19.95
2023-01-18T08:41:23.718Z,20.75
2023-01-18T08:43:53.703Z,19.17
2023-01-18T08:46:20.941Z,20.33
2023-01-18T08:48:52.292Z,22.35
2023-01-18T08:51:19.181Z,20.55
2023-01-18T08:53:46.619Z,20.73
2023-01-18T08:56:13.430Z,19.90
2023-01-18T08:58:39.898Z,19.63
2023-01-18T09:01:08.116Z,20.67
2023-01-18T09:03:35.369Z,19.92
2023-01-18T09:06:03.880Z,20.38
2023-01-18T09:08:31.518Z,20.65
2023-01-18T09:11:07.146Z,20.35
2023-01-18T09:13:33.979Z,17.75
2023-01-18T09:16:07.589Z,19.30
2023-01-18T09:18:34.025Z,16.73
2023-01-18T09:21:06.079Z,15.98
2023-01-18T09:23:32.505Z,17.80
2023-01-18T09:26:20.947Z,16.63
2023-01-18T09:28:49.667Z,16.48
2023-01-18T09:31:16.178Z,14.98
2023-01-18T09:33:52.423Z,18.25
2023-01-18T09:36:21.379Z,16.80
2023-01-18T09:38:47.793Z,17.63
2023-01-18T09:41:33.050Z,18.88
2023-01-18T09:44:09.268Z,16.65
2023-01-18T09:46:39.745Z,15.80
2023-01-18T09:49:13.834Z,17.75
2023-01-18T09:51:56.933Z,19.83
2023-01-18T09:54:23.250Z,16.77
2023-01-18T09:57:05.459Z,19.73
2023-01-18T09:59:41.462Z,16.35
2023-01-18T10:02:23.891Z,19.33
2023-01-18T10:04:56.446Z,17.30
2023-01-18T10:07:27.582Z,20.02
2023-01-18T10:09:56.442Z,16.85
2023-01-18T10:12:36.308Z,17.00
2023-01-18T10:15:26.665Z,16.85
2023-01-18T10:17:56.546Z,14.93
2023-01-18T10:20:45.537Z,16.92
2023-01-18T10:23:31.512Z,15.75
2023-01-18T10:26:04.094Z,17.52
2023-01-18T10:28:46.693Z,18.00
2023-01-18T10:31:37.873Z,18.77
2023-01-18T10:34:18.299Z,19.70
2023-01-18T10:36:49.887Z,16.13
2023-01-18T10:39:39.772Z,18.58
2023-01-18T10:42:17.701Z,16.20
2023-01-18T10:44:44.918Z,16.58
2023-01-18T10:47:12.003Z,14.43
2023-01-18T10:49:41.867Z,15.00
2023-01-18T10:52:27.933Z,12.75
2023-01-18T10:55:01.215Z,15.25
2023-01-18T10:57:32.130Z,13.52
2023-01-18T10:59:59.570Z,13.20
2023-01-18T11:02:34.685Z,13.73
2023-01-18T11:05:16.178Z,12.15
2023-01-18T11:07:42.647Z,10.65
2023-01-18T11:10:24.878Z,10.85
2023-01-18T11:12:53.013Z,13.50
2023-01-18T11:15:19.304Z,10.00
2023-01-18T11:18:02.794Z,11.00
2023-01-18T11:20:53.023Z,11.30
2023-01-18T11:23:31.633Z,9.88
2023-01-18T11:26:01.907Z,11.65
2023-01-18T11:28:28.242Z,12.55
2023-01-18T11:30:54.483Z,9.50
2023-01-18T11:33:23.595Z,9.55
2023-01-18T11:35:56.170Z,11.68
2023-01-18T11:38:28.271Z,9.15
2023-01-18T11:41:23.359Z,9.10
2023-01-18T11:44:17.179Z,10.77
2023-01-18T11:46:47.572Z,8.50
2023-01-18T11:49:13.903Z,9.30
2023-01-18T11:52:10.454Z,9.27
2023-01-18T11:54:46.521Z,8.68
2023-01-18T11:57:14.266Z,8.68
2023-01-18T11:59:43.494Z,10.00
2023-01-18T12:02:35.137Z,9.05
2023-01-18T12:05:28.068Z,11.95
2023-01-18T12:08:07.984Z,10.25
2023-01-18T12:10:49.332Z,9.43
2023-01-18T12:13:35.075Z,9.70
2023-01-18T12:16:14.031Z,9.93
2023-01-18T12:18:55.184Z,9.82
2023-01-18T12:21:35.912Z,15.82
2023-01-18T12:24:34.012Z,11.98
2023-01-18T12:27:09.882Z,9.77
2023-01-18T12:29:51.529Z,9.95
2023-01-18T12:32:45.907Z,10.20
2023-01-18T12:35:25.205Z,10.80
2023-01-18T12:38:13.568Z,12.60
2023-01-18T12:40:50.461Z,9.85
2023-01-18T12:43:32.709Z,11.27
2023-01-18T12:46:07.574Z,9.50
2023-01-18T12:48:54.521Z,9.73
2023-01-18T12:51:24.404Z,12.88
2023-01-18T12:53:58.574Z,9.38
2023-01-18T12:56:32.964Z,9.65
2023-01-18T12:59:18.097Z,9.65
2023-01-18T13:01:51.690Z,9.43
2023-01-18T13:04:24.380Z,11.00
2023-01-18T13:06:56.674Z,9.90
2023-01-18T13:09:28.407Z,10.65
2023-01-18T13:11:58.304Z,11.45
2023-01-18T13:14:40.950Z,12.40
2023-01-18T13:17:46.268Z,10.15
2023-01-18T13:20:19.593Z,10.50
2023-01-18T13:23:23.709Z,12.95
2023-01-18T13:26:11.607Z,11.82
2023-01-18T13:28:38.493Z,10.40
2023-01-18T13:31:06.188Z,10.70
2023-01-18T13:33:36.360Z,11.52
2023-01-18T13:36:09.608Z,10.35
2023-01-18T13:38:42.050Z,11.75
2023-01-18T13:41:13.153Z,9.80
2023-01-18T13:43:46.119Z,12.32
2023-01-18T13:46:15.772Z,10.25
2023-01-18T13:48:50.307Z,10.95
2023-01-18T13:51:40.982Z,11.68
2023-01-18T13:54:10.060Z,11.88
2023-01-18T13:56:38.132Z,12.43
2023-01-18T13:59:26.196Z,10.85
2023-01-18T14:01:52.641Z,10.55
2023-01-18T14:04:30.134Z,10.30
2023-01-18T14:07:06.096Z,9.65
2023-01-18T14:09:45.256Z,9.38
2023-01-18T14:12:12.912Z,8.60
2023-01-18T14:14:57.396Z,10.85
2023-01-18T14:20:13.518Z,8.45
2023-01-18T14:23:10.999Z,8.57
2023-01-18T14:25:55.195Z,8.52
2023-01-18T14:28:36.548Z,10.93
2023-01-18T14:31:04.665Z,9.02
2023-01-18T14:33:41.177Z,8.40
2023-01-18T14:36:18.730Z,11.15
2023-01-18T14:38:45.125Z,8.20
2023-01-18T14:41:17.055Z,12.27
2023-01-18T14:43:46.413Z,9.32
2023-01-18T14:46:22.733Z,8.45
2023-01-18T14:48:54.640Z,10.15
2023-01-18T14:51:24.078Z,9.50
2023-01-18T14:53:57.964Z,12.48
2023-01-18T14:56:26.465Z,9.38
2023-01-18T14:59:16.092Z,8.52
2023-01-18T15:01:50.192Z,8.85
2023-01-18T15:04:23.830Z,8.02
2023-01-18T15:07:07.651Z,9.45
2023-01-18T15:09:36.970Z,10.10
2023-01-18T15:12:08.341Z,8.65
2023-01-18T15:14:37.887Z,9.23
2023-01-18T15:17:11.478Z,9.50
2023-01-18T15:19:47.329Z,8.32
2023-01-18T15:22:16.771Z,8.65
2023-01-18T15:24:45.760Z,7.60
2023-01-18T15:27:18.177Z,7.90
2023-01-18T15:29:50.811Z,11.38
2023-01-18T15:32:22.345Z,9.73
2023-01-18T15:34:51.883Z,10.02
2023-01-18T15:37:27.087Z,8.13
2023-01-18T15:39:56.603Z,7.57
2023-01-18T15:42:30.241Z,12.85
2023-01-18T15:44:58.611Z,6.93
2023-01-18T15:47:28.733Z,7.60
2023-01-18T15:49:57.834Z,7.80
2023-01-18T15:52:44.922Z,8.65
2023-01-18T15:55:34.288Z,7.57
2023-01-18T15:58:04.242Z,8.45
2023-01-18T16:00:41.708Z,6.75
2023-01-18T16:03:26.461Z,7.47
2023-01-18T16:06:05.170Z,7.00
2023-01-18T16:08:32.449Z,8.43
2023-01-18T16:10:58.810Z,8.77
2023-01-18T16:13:38.529Z,9.93
2023-01-18T16:16:13.883Z,12.10
2023-01-18T16:18:43.359Z,7.15
2023-01-18T16:21:13.738Z,7.40
2023-01-18T16:23:45.062Z,7.65
2023-01-18T16:26:14.212Z,8.00
2023-01-18T16:28:40.690Z,7.30
2023-01-18T16:31:07.112Z,9.82
2023-01-18T16:33:33.532Z,9.70
2023-01-18T16:36:01.367Z,8.10
2023-01-18T16:38:27.709Z,7.88
2023-01-18T16:40:55.219Z,7.70
2023-01-18T16:43:28.533Z,8.13
2023-01-18T16:45:58.812Z,7.63
2023-01-18T16:48:27.176Z,7.05
2023-01-18T16:50:55.951Z,7.68
2023-01-18T16:53:35.224Z,7.22
2023-01-18T16:56:01.645Z,8.18
2023-01-18T16:58:28.689Z,7.70
2023-01-18T17:01:23.695Z,7.28
2023-01-18T17:03:50.943Z,7.75
2023-01-18T17:06:22.957Z,7.63
2023-01-18T17:08:54.054Z,7.15
2023-01-18T17:11:20.394Z,7.78
2023-01-18T17:13:47.623Z,8.45
2023-01-18T17:16:16.979Z,7.63
2023-01-18T17:19:00.411Z,7.10
2023-01-18T17:21:26.752Z,7.47
2023-01-18T17:23:53.119Z,7.47
2023-01-18T17:26:19.446Z,7.78
2023-01-18T17:28:45.882Z,7.60
2023-01-18T17:31:12.977Z,7.50
2023-01-18T17:33:40.414Z,8.50
2023-01-18T17:36:08.571Z,7.35
2023-01-18T17:38:35.069Z,8.32
2023-01-18T17:41:01.420Z,7.20
2023-01-18T17:43:33.873Z,7.38
2023-01-18T17:46:06.430Z,7.40
2023-01-18T17:48:44.624Z,7.75
2023-01-18T17:51:13.082Z,7.72
2023-01-18T17:53:41.010Z,7.50
2023-01-18T17:56:16.902Z,7.18
2023-01-18T17:58:47.993Z,7.32
2023-01-18T18:01:16.865Z,8.85
2023-01-18T18:03:47.634Z,8.10
2023-01-18T18:06:26.202Z,8.05
2023-01-18T18:08:56.822Z,9.57
2023-01-18T18:11:23.893Z,7.95
2023-01-18T18:13:50.226Z,7.70
2023-01-18T18:16:18.821Z,9.93
2023-01-18T18:18:45.729Z,13.23
2023-01-18T18:21:12.118Z,8.38
2023-01-18T18:23:38.486Z,9.18
2023-01-18T18:26:05.031Z,10.02
2023-01-18T18:28:33.126Z,9.68
2023-01-18T18:31:00.183Z,9.30
2023-01-18T18:33:28.331Z,8.35
2023-01-18T18:35:55.125Z,11.77
2023-01-18T18:38:23.006Z,9.50
2023-01-18T18:40:53.914Z,9.57
2023-01-18T18:43:21.052Z,8.30
2023-01-18T18:45:47.716Z,9.90
2023-01-18T18:48:14.449Z,8.82
2023-01-18T18:50:41.159Z,8.80
2023-01-18T18:53:07.992Z,7.63
2023-01-18T18:55:34.398Z,8.00
2023-01-18T18:58:00.776Z,11.48
2023-01-18T19:00:27.331Z,7.93
2023-01-18T19:03:01.165Z,8.38
2023-01-18T19:07:55.586Z,7.97
2023-01-18T19:10:24.105Z,8.00
2023-01-18T19:12:50.457Z,8.82
2023-01-18T19:15:17.023Z,8.57
2023-01-18T19:17:43.372Z,9.18
2023-01-18T19:20:13.418Z,8.48
2023-01-18T19:22:39.915Z,8.63
2023-01-18T19:25:06.862Z,8.00
2023-01-18T19:27:33.193Z,8.35
2023-01-18T19:29:59.561Z,8.93
2023-01-18T19:32:25.959Z,8.98
2023-01-18T19:34:52.269Z,9.20
2023-01-18T19:37:18.621Z,8.98
2023-01-18T19:39:45.938Z,9.40
2023-01-18T19:42:12.289Z,8.93
2023-01-18T19:44:38.628Z,9.35
2023-01-18T19:47:04.972Z,10.65
2023-01-18T19:49:31.507Z,9.00
2023-01-18T19:51:57.868Z,9.27
2023-01-18T19:54:24.581Z,12.07
2023-01-18T19:56:51.359Z,12.25
2023-01-18T19:59:17.710Z,11.02
2023-01-18T20:01:44.673Z,9.75
2023-01-18T20:04:13.025Z,11.35
2023-01-18T20:06:39.649Z,11.73
2023-01-18T20:09:17.656Z,9.63
2023-01-18T20:11:44.915Z,14.63
2023-01-18T20:14:11.786Z,10.02
2023-01-18T20:16:38.885Z,10.13
2023-01-18T20:19:05.331Z,11.85
2023-01-18T20:21:31.747Z,10.68
2023-01-18T20:23:58.068Z,9.68
2023-01-18T20:26:35.780Z,10.15
2023-01-18T20:29:06.564Z,10.80
2023-01-18T20:31:34.436Z,9.80
2023-01-18T20:34:00.806Z,11.63
2023-01-18T20:36:27.815Z,11.10
2023-01-18T20:38:54.180Z,11.13
2023-01-18T20:41:20.777Z,11.27
2023-01-18T20:43:47.238Z,11.65
2023-01-18T20:46:13.743Z,11.52
2023-01-18T20:48:40.116Z,11.73
2023-01-18T20:51:09.992Z,11.30
2023-01-18T20:53:38.041Z,11.88
2023-01-18T20:56:08.326Z,11.32
2023-01-18T20:58:39.235Z,11.82
2023-01-18T21:01:16.632Z,12.00
2023-01-18T21:03:44.252Z,12.30
2023-01-18T21:06:11.221Z,12.50
2023-01-18T21:08:38.062Z,11.60
2023-01-18T21:11:04.999Z,11.77
2023-01-18T21:13:32.452Z,12.82
2023-01-18T21:15:59.690Z,12.55
2023-01-18T21:18:26.982Z,12.40
2023-01-18T21:20:53.810Z,11.27
2023-01-18T21:23:25.746Z,12.55
2023-01-18T21:25:54.429Z,12.73
2023-01-18T21:28:21.056Z,15.20
2023-01-18T21:30:51.776Z,12.95
2023-01-18T21:33:19.100Z,12.85
2023-01-18T21:35:46.187Z,13.25
2023-01-18T21:38:12.656Z,14.18
2023-01-18T21:40:39.562Z,12.98
2023-01-18T21:43:24.350Z,13.43
2023-01-18T21:45:56.510Z,12.80
2023-01-18T21:48:28.760Z,12.60
2023-01-18T21:51:18.392Z,13.27
2023-01-18T21:54:03.684Z,12.95
2023-01-18T21:56:30.124Z,15.00
2023-01-18T21:58:58.109Z,13.52
2023-01-18T22:01:26.728Z,14.43
2023-01-18T22:04:13.315Z,16.83
2023-01-18T22:06:39.984Z,15.10
2023-01-18T22:09:07.785Z,14.98
2023-01-18T22:11:34.208Z,15.35
2023-01-18T22:14:03.693Z,15.75
2023-01-18T22:16:30.955Z,15.48
2023-01-18T22:18:58.259Z,14.95
2023-01-18T22:21:25.384Z,15.00
2023-01-18T22:23:52.668Z,17.33
2023-01-18T22:26:20.382Z,16.55
2023-01-18T22:28:46.839Z,17.73
2023-01-18T22:31:13.947Z,16.73
2023-01-18T22:33:41.235Z,16.42
2023-01-18T22:36:08.208Z,16.95
2023-01-18T22:38:34.753Z,18.10
2023-01-18T22:41:12.857Z,17.27
2023-01-18T22:43:40.472Z,15.77
2023-01-18T22:46:08.119Z,16.75
2023-01-18T22:48:36.431Z,16.08
2023-01-18T22:51:04.532Z,16.90
2023-01-18T22:53:32.238Z,18.63
2023-01-18T22:56:03.404Z,20.50
2023-01-18T22:58:30.611Z,19.63
2023-01-18T23:00:57.252Z,18.75
2023-01-18T23:03:23.696Z,18.67
2023-01-18T23:05:57.215Z,19.52
2023-01-18T23:08:38.209Z,18.40
2023-01-18T23:11:05.252Z,17.25
2023-01-18T23:13:31.563Z,18.80
2023-01-18T23:16:16.783Z,19.85
2023-01-18T23:18:43.310Z,16.65
2023-01-18T23:21:09.606Z,18.98
2023-01-18T23:23:35.936Z,18.52
2023-01-18T23:26:02.304Z,16.90
2023-01-18T23:28:41.025Z,20.00
2023-01-18T23:31:08.532Z,18.48
2023-01-18T23:33:34.907Z,19.75
2023-01-18T23:36:01.265Z,19.35
2023-01-18T23:38:27.621Z,18.58
2023-01-18T23:41:15.840Z,19.02
2023-01-18T23:44:00.424Z,16.17
2023-01-18T23:46:45.206Z,16.45
2023-01-18T23:49:29.852Z,14.82
2023-01-18T23:52:14.738Z,14.35
2023-01-18T23:54:41.081Z,13.95
2023-01-18T23:57:07.405Z,15.68
2023-01-18T23:59:34.634Z,16.92
